Time;durP1;ratioP1;P1;durP2;ratioP2;P2;SDS_P1;SDS_P2;PMS_P1;PMS_P2;Temp;Humidity;BMP_temperature;BMP_pressure;BME280_temperature;BME280_humidity;BME280_pressure;Samples;Min_cycle;Max_cycle;Signal;HPM_P1;HPM_P2
2022/05/04 00:01:11;;;;;;;442.50;409.17;;;8.50;99.90;;;;;;4993265;28;20073;-76
2022/05/04 00:03:39;;;;;;;696.85;640.50;;;8.30;99.90;;;;;;4992445;28;20069;-76
2022/05/04 00:06:05;;;;;;;1078.72;961.45;;;8.30;99.90;;;;;;4992817;28;20050;-76
2022/05/04 00:08:31;;;;;;;861.30;786.13;;;8.20;99.90;;;;;;4976266;28;20062;-76
2022/05/04 00:10:57;;;;;;;971.47;874.17;;;8.30;99.90;;;;;;4993420;28;20173;-75
2022/05/04 00:13:23;;;;;;;1069.55;925.10;;;7.30;99.90;;;;;;4993194;28;20128;-75
2022/05/04 00:15:49;;;;;;;1047.53;918.80;;;8.20;99.90;;;;;;4993410;28;20046;-75
2022/05/04 00:18:14;;;;;;;792.75;707.17;;;9.50;99.90;;;;;;4975528;28;20053;-75
2022/05/04 00:20:40;;;;;;;1586.95;983.53;;;8.60;99.90;;;;;;4992866;28;20073;-75
2022/05/04 00:23:06;;;;;;;1745.13;999.90;;;8.20;99.90;;;;;;4992467;28;20050;-75
2022/05/04 00:25:31;;;;;;;1174.28;871.05;;;8.20;99.90;;;;;;4975415;28;20046;-75
2022/05/04 00:27:58;;;;;;;1334.93;999.90;;;8.20;99.90;;;;;;4991933;28;20050;-76
2022/05/04 00:30:24;;;;;;;1134.15;947.92;;;8.50;99.90;;;;;;4992716;28;20061;-75
2022/05/04 00:32:50;;;;;;;1305.88;999.90;;;9.40;99.90;;;;;;4992904;28;20046;-75
2022/05/04 00:35:15;;;;;;;1095.32;965.97;;;8.10;99.90;;;;;;4975111;28;20149;-75
2022/05/04 00:37:41;;;;;;;1325.25;999.90;;;8.10;99.90;;;;;;4959702;28;20484;-75
2022/05/04 00:40:07;;;;;;;1259.30;999.90;;;9.40;99.90;;;;;;4992904;28;20065;-75
2022/05/04 00:42:33;;;;;;;1234.93;995.17;;;8.00;99.90;;;;;;4975153;28;20129;-75
2022/05/04 00:44:59;;;;;;;1001.75;896.97;;;8.00;99.90;;;;;;4992765;28;20136;-75
2022/05/04 00:47:25;;;;;;;1340.97;999.90;;;8.00;99.90;;;;;;4974865;28;20129;-76
2022/05/04 00:49:51;;;;;;;1110.88;959.05;;;7.90;99.90;;;;;;4992586;28;20061;-75
2022/05/04 00:52:18;;;;;;;1449.00;999.90;;;9.00;99.90;;;;;;4992473;28;20053;-75
2022/05/04 00:54:46;;;;;;;1556.35;999.90;;;8.00;99.90;;;;;;4974949;28;20057;-75
2022/05/04 00:57:14;;;;;;;1364.18;999.90;;;7.90;99.90;;;;;;4992467;28;20046;-76
2022/05/04 00:59:41;;;;;;;1803.93;999.90;;;8.20;99.90;;;;;;4975185;28;20054;-75
2022/05/04 01:02:07;;;;;;;1444.43;999.90;;;7.90;99.90;;;;;;4975606;28;20120;-74
2022/05/04 01:04:33;;;;;;;1537.03;999.90;;;7.90;99.90;;;;;;4975168;28;20714;-75
2022/05/04 01:06:59;;;;;;;1636.85;999.90;;;7.90;99.90;;;;;;4992060;28;20046;-75
2022/05/04 01:09:25;;;;;;;1601.13;999.63;;;7.90;99.90;;;;;;4974936;28;20057;-75
2022/05/04 01:11:51;;;;;;;1179.90;999.90;;;8.00;99.90;;;;;;4992586;28;20042;-75
2022/05/04 01:14:17;;;;;;;1242.38;999.90;;;8.00;99.90;;;;;;4975140;28;20050;-75
2022/05/04 01:16:46;;;;;;;1085.82;967.45;;;8.10;99.90;;;;;;4992268;28;20054;-75
2022/05/04 01:19:12;;;;;;;1390.72;999.90;;;7.90;99.90;;;;;;4991428;28;20058;-75
2022/05/04 01:21:38;;;;;;;1250.30;999.90;;;7.90;99.90;;;;;;4974486;28;20128;-75
2022/05/04 01:24:04;;;;;;;1086.68;971.90;;;9.00;99.90;;;;;;4992405;28;20070;-75
2022/05/04 01:26:30;;;;;;;1240.10;999.90;;;7.90;99.90;;;;;;4991370;28;20046;-75
2022/05/04 01:28:56;;;;;;;1164.47;993.05;;;9.30;99.90;;;;;;4992577;28;20172;-75
2022/05/04 01:31:23;;;;;;;1133.28;974.85;;;7.80;99.90;;;;;;4991445;28;20486;-75
2022/05/04 01:33:49;;;;;;;1415.05;986.28;;;8.40;99.90;;;;;;4992174;28;20046;-75
2022/05/04 01:36:14;;;;;;;1139.93;981.15;;;7.70;99.90;;;;;;4991618;28;20038;-78
2022/05/04 01:38:40;;;;;;;1924.43;870.05;;;7.70;99.90;;;;;;4990642;28;20406;-75
2022/05/04 01:42:02;;;;;;;1442.78;990.47;;;7.70;99.90;;;;;;4991952;28;20137;-75
2022/05/04 01:43:51;;;;;;;1999.90;994.95;;;7.60;99.90;;;;;;4991898;28;20057;-75
2022/05/04 01:46:17;;;;;;;945.70;860.17;;;8.10;99.90;;;;;;4991644;28;20050;-75
2022/05/04 01:48:44;;;;;;;932.55;844.08;;;8.60;99.90;;;;;;4992164;28;20149;-75
2022/05/04 01:51:09;;;;;;;1636.50;999.58;;;7.50;99.90;;;;;;4991306;28;20462;-75
2022/05/04 01:53:35;;;;;;;1323.70;998.63;;;7.60;99.90;;;;;;4991868;28;20129;-75
2022/05/04 01:56:06;;;;;;;1173.93;993.60;;;8.10;99.90;;;;;;4971261;28;20117;-75
2022/05/04 01:58:31;;;;;;;1984.63;999.90;;;7.40;99.90;;;;;;4971467;28;20064;-74
2022/05/04 02:00:58;;;;;;;1630.22;998.42;;;7.50;99.90;;;;;;4972753;28;20105;-74
2022/05/04 02:03:24;;;;;;;1132.72;983.05;;;7.30;99.90;;;;;;4972498;28;20051;-75
2022/05/04 02:05:50;;;;;;;1597.28;886.50;;;7.20;99.90;;;;;;4972272;28;20039;-75
2022/05/04 02:08:16;;;;;;;1090.95;967.55;;;7.20;99.90;;;;;;4972706;28;20050;-75
2022/05/04 02:10:41;;;;;;;1041.40;935.58;;;7.20;99.90;;;;;;4971092;28;20055;-75
2022/05/04 02:13:07;;;;;;;1205.15;991.90;;;7.20;99.90;;;;;;4974151;28;20061;-75
2022/05/04 02:15:33;;;;;;;1454.65;992.05;;;7.70;99.90;;;;;;4974527;28;20089;-75
2022/05/04 02:17:58;;;;;;;1115.43;996.75;;;7.10;99.90;;;;;;4991976;28;20050;-75
2022/05/04 02:20:24;;;;;;;1102.07;985.08;;;7.10;99.90;;;;;;4974083;28;20043;-75
2022/05/04 02:22:49;;;;;;;1992.55;980.05;;;8.00;99.90;;;;;;4992011;28;20047;-75
2022/05/04 02:25:15;;;;;;;1177.47;987.97;;;7.50;99.90;;;;;;4991780;28;20134;-75
2022/05/04 02:27:41;;;;;;;800.83;726.63;;;7.00;99.90;;;;;;4991603;28;20052;-75
2022/05/04 02:30:07;;;;;;;988.22;891.40;;;7.00;99.90;;;;;;4993262;28;20466;-75
2022/05/04 02:32:33;;;;;;;1056.07;944.40;;;6.80;99.90;;;;;;4977709;28;20376;-75
2022/05/04 02:37:54;;;;;;;1031.40;927.83;;;7.40;99.90;;;;;;4977970;28;20058;-75
2022/05/04 02:40:21;;;;;;;1738.20;995.38;;;7.10;99.90;;;;;;4995620;28;20042;-75
2022/05/04 02:42:46;;;;;;;1312.20;981.30;;;6.90;99.90;;;;;;4995601;28;20047;-75
2022/05/04 02:45:14;;;;;;;1402.00;999.13;;;6.90;99.90;;;;;;4995639;28;20046;-75
2022/05/04 02:47:40;;;;;;;1715.10;999.90;;;6.90;99.90;;;;;;4977910;28;20050;-75
2022/05/04 02:50:07;;;;;;;1926.50;977.13;;;8.00;99.90;;;;;;4994912;28;20126;-75
2022/05/04 02:52:33;;;;;;;1087.72;980.25;;;6.80;99.90;;;;;;4994643;28;20514;-75
2022/05/04 02:54:58;;;;;;;1141.38;929.00;;;6.80;99.90;;;;;;4994595;28;20054;-75
2022/05/04 02:57:24;;;;;;;1867.18;990.05;;;6.80;99.90;;;;;;4994980;28;20050;-76
2022/05/04 02:59:50;;;;;;;1411.85;990.45;;;6.80;99.90;;;;;;4994837;28;20463;-77
2022/05/04 03:02:28;;;;;;;1910.53;999.90;;;7.20;99.90;;;;;;4977327;28;20065;-75
2022/05/04 03:04:58;;;;;;;1554.93;999.90;;;6.80;99.90;;;;;;4994414;28;20058;-76
2022/05/04 03:07:25;;;;;;;1615.45;967.03;;;6.70;99.90;;;;;;4994377;28;20050;-76
2022/05/04 03:09:50;;;;;;;1999.90;999.90;;;7.80;99.90;;;;;;4994656;28;20475;-75
2022/05/04 03:12:16;;;;;;;1294.55;988.65;;;6.80;99.90;;;;;;4977196;28;20116;-75
2022/05/04 03:14:43;;;;;;;1181.28;953.88;;;7.50;99.90;;;;;;4994045;28;20050;-75
2022/05/04 03:17:08;;;;;;;1026.32;919.28;;;6.90;99.90;;;;;;4994369;28;20387;-75
2022/05/04 03:19:34;;;;;;;1251.20;987.58;;;7.60;99.90;;;;;;4994130;28;20046;-76
2022/05/04 03:22:00;;;;;;;1019.03;916.15;;;8.20;99.90;;;;;;4994165;28;20042;-75
2022/05/04 03:24:25;;;;;;;1213.95;966.95;;;8.00;99.90;;;;;;4976365;28;20403;-76
2022/05/04 03:26:51;;;;;;;1999.90;999.90;;;7.60;99.90;;;;;;4976758;28;20049;-75
2022/05/04 03:29:17;;;;;;;1322.32;955.83;;;6.90;99.90;;;;;;4976723;28;20050;-75
2022/05/04 03:31:43;;;;;;;1029.93;925.92;;;6.50;99.90;;;;;;4993763;28;20050;-75
2022/05/04 03:34:08;;;;;;;1999.90;999.90;;;6.80;99.90;;;;;;4994247;28;20050;-75
2022/05/04 03:36:37;;;;;;;1340.90;939.03;;;7.00;99.90;;;;;;4993297;28;20066;-75
2022/05/04 03:39:06;;;;;;;1970.45;984.85;;;8.00;99.90;;;;;;4994021;28;20049;-75
2022/05/04 03:41:33;;;;;;;1526.53;999.75;;;6.70;99.90;;;;;;4975376;28;20391;-74
2022/05/04 03:43:59;;;;;;;1622.55;999.90;;;7.20;99.90;;;;;;4976469;28;20343;-74
2022/05/04 03:46:27;;;;;;;1189.88;970.35;;;6.80;99.90;;;;;;4993595;28;20047;-74
2022/05/04 03:48:54;;;;;;;1354.47;951.60;;;6.80;99.90;;;;;;4976537;28;20375;-74
2022/05/04 03:51:20;;;;;;;1999.90;866.33;;;7.70;99.90;;;;;;4993315;28;20129;-74
2022/05/04 03:53:47;;;;;;;1999.90;999.90;;;8.30;99.90;;;;;;4993278;28;20125;-74
2022/05/04 03:56:14;;;;;;;1690.13;999.90;;;7.60;99.90;;;;;;4975797;28;20533;-74
2022/05/04 03:58:40;;;;;;;1923.65;992.25;;;6.90;99.90;;;;;;4993330;28;20296;-75
2022/05/04 04:01:06;;;;;;;1431.13;997.70;;;7.90;99.90;;;;;;4993740;28;20053;-75
2022/05/04 04:03:32;;;;;;;1558.88;888.67;;;6.60;99.90;;;;;;4993209;28;20046;-75
2022/05/04 04:05:58;;;;;;;1387.15;999.90;;;8.80;99.90;;;;;;4975676;28;20046;-75
2022/05/04 04:08:25;;;;;;;1999.90;999.90;;;7.00;99.90;;;;;;4993369;28;20062;-76
2022/05/04 04:10:51;;;;;;;1999.90;999.90;;;7.10;99.90;;;;;;4993321;28;20050;-76
2022/05/04 04:13:17;;;;;;;1999.90;978.88;;;7.00;99.90;;;;;;4993377;28;20082;-76
2022/05/04 04:15:43;;;;;;;1999.90;999.90;;;7.90;99.90;;;;;;4992652;28;20478;-76
2022/05/04 04:18:09;;;;;;;1999.90;999.90;;;7.30;99.90;;;;;;4993387;28;20046;-76
2022/05/04 04:23:25;;;;;;;1941.53;999.90;;;8.30;99.90;;;;;;4957594;28;20054;-76
2022/05/04 04:25:50;;;;;;;1404.18;994.15;;;7.10;99.90;;;;;;4992694;28;20060;-76
2022/05/04 04:28:16;;;;;;;1292.78;994.55;;;7.80;99.90;;;;;;4993199;28;20054;-76
2022/05/04 04:30:42;;;;;;;1999.90;999.90;;;;;;;;;;4975618;28;20515;-76
2022/05/04 04:33:08;;;;;;;853.08;778.92;;;7.20;99.90;;;;;;4993225;28;20073;-76
2022/05/04 04:35:34;;;;;;;1198.88;930.90;;;7.20;99.90;;;;;;4992542;28;20042;-76
2022/05/04 04:38:00;;;;;;;1021.30;904.70;;;7.20;99.90;;;;;;4992018;28;20491;-76
2022/05/04 04:40:26;;;;;;;1253.65;939.50;;;7.30;99.90;;;;;;4976113;28;20054;-76
2022/05/04 04:42:52;;;;;;;992.83;866.08;;;7.30;99.90;;;;;;4992966;28;20346;-76
2022/05/04 04:45:18;;;;;;;1999.90;999.90;;;7.30;99.90;;;;;;4992903;28;20428;-76
2022/05/04 04:47:47;;;;;;;1728.18;993.10;;;7.40;99.90;;;;;;4992514;28;20065;-76
2022/05/04 04:50:14;;;;;;;1983.43;999.90;;;7.80;99.90;;;;;;4992404;28;20101;-76
2022/05/04 04:52:40;;;;;;;964.30;859.70;;;7.50;99.90;;;;;;4974824;28;20404;-76
2022/05/04 04:55:07;;;;;;;978.33;870.97;;;7.80;99.90;;;;;;4992231;28;20435;-76
2022/05/04 04:57:36;;;;;;;840.03;769.17;;;7.60;99.90;;;;;;4992662;28;20454;-76
2022/05/04 05:00:03;;;;;;;900.50;818.58;;;7.70;99.90;;;;;;4992631;28;20081;-76
2022/05/04 05:02:29;;;;;;;1008.08;901.67;;;7.70;99.90;;;;;;4992811;28;20082;-76
2022/05/04 05:04:54;;;;;;;830.00;763.50;;;7.80;99.90;;;;;;4974481;28;20042;-76
2022/05/04 05:07:20;;;;;;;827.63;757.28;;;7.80;99.90;;;;;;4992477;28;20050;-76
2022/05/04 05:09:46;;;;;;;1406.63;973.03;;;8.20;99.90;;;;;;4992401;28;20046;-76
2022/05/04 05:12:12;;;;;;;1999.90;999.90;;;7.90;99.90;;;;;;4992619;28;20038;-77
2022/05/04 05:17:22;;;;;;;824.72;758.95;;;9.00;99.90;;;;;;4992797;28;20105;-76
2022/05/04 05:19:48;;;;;;;1191.78;918.30;;;8.10;99.90;;;;;;4992172;28;20129;-76
2022/05/04 05:22:13;;;;;;;828.80;762.20;;;8.10;99.90;;;;;;4992391;28;20096;-76
2022/05/04 05:24:39;;;;;;;822.28;754.67;;;8.50;99.90;;;;;;4975053;28;20185;-77
2022/05/04 05:27:08;;;;;;;788.83;723.13;;;8.20;99.90;;;;;;4991250;28;20050;-76
2022/05/04 05:29:33;;;;;;;761.00;694.53;;;8.30;99.90;;;;;;4975298;28;20080;-74
2022/05/04 05:31:59;;;;;;;930.50;814.08;;;8.30;99.90;;;;;;4991973;28;20051;-75
2022/05/04 05:34:26;;;;;;;756.03;693.13;;;;;;;;;;4992422;28;20450;-74
2022/05/04 05:36:53;;;;;;;759.15;692.90;;;8.50;99.90;;;;;;4991553;28;20134;-74
2022/05/04 05:39:19;;;;;;;865.15;790.92;;;8.50;99.90;;;;;;4992267;28;20054;-74
2022/05/04 05:41:44;;;;;;;1534.03;936.03;;;8.60;99.90;;;;;;4974636;28;20050;-74
2022/05/04 05:44:10;;;;;;;750.35;688.35;;;8.60;99.90;;;;;;4992215;28;20493;-74
2022/05/04 05:46:36;;;;;;;544.13;504.83;;;9.80;99.90;;;;;;4992042;28;20082;-73
2022/05/04 05:49:01;;;;;;;696.97;642.28;;;9.40;99.90;;;;;;4991626;28;20042;-74
2022/05/04 05:51:27;;;;;;;525.45;488.02;;;8.80;99.90;;;;;;4991895;28;20480;-74
2022/05/04 05:53:53;;;;;;;571.92;529.10;;;9.30;99.90;;;;;;4991743;28;20050;-74
2022/05/04 05:56:18;;;;;;;813.83;700.83;;;9.00;99.90;;;;;;4991959;28;20236;-74
2022/05/04 05:58:44;;;;;;;479.20;443.70;;;9.10;99.90;;;;;;4991749;28;20057;-74
2022/05/04 06:01:10;;;;;;;694.78;636.70;;;9.10;99.90;;;;;;4974632;28;20480;-74
2022/05/04 06:03:35;;;;;;;784.90;719.75;;;9.30;99.90;;;;;;4992047;28;20093;-74
2022/05/04 06:06:01;;;;;;;578.80;536.03;;;9.50;99.90;;;;;;4976852;28;20122;-74
2022/05/04 06:08:27;;;;;;;616.97;568.40;;;9.20;99.90;;;;;;4978579;28;20050;-74
2022/05/04 06:10:52;;;;;;;528.33;489.65;;;9.20;99.90;;;;;;4995468;28;20467;-74
2022/05/04 06:13:18;;;;;;;738.25;683.55;;;9.30;99.90;;;;;;4978257;28;20045;-74
2022/05/04 06:15:45;;;;;;;653.03;602.75;;;9.30;99.90;;;;;;4995028;28;20074;-74
2022/05/04 06:18:12;;;;;;;558.35;516.35;;;9.40;99.90;;;;;;4995690;28;20089;-73
2022/05/04 06:20:38;;;;;;;651.10;601.50;;;9.90;99.90;;;;;;4995322;28;20062;-73
2022/05/04 06:23:04;;;;;;;593.05;549.88;;;9.60;99.90;;;;;;4993961;28;20457;-74
2022/05/04 06:25:30;;;;;;;713.15;660.55;;;10.00;99.90;;;;;;4978068;28;20050;-77
2022/05/04 06:27:56;;;;;;;842.30;769.60;;;9.60;99.90;;;;;;4995424;28;20459;-76
2022/05/04 06:35:50;;;;;;;788.78;729.88;;;9.80;99.90;;;;;;4994584;28;20049;-74
2022/05/04 06:38:16;;;;;;;636.47;587.55;;;10.00;99.90;;;;;;4978161;28;20050;-75
2022/05/04 06:40:42;;;;;;;748.47;694.83;;;10.00;99.90;;;;;;4977525;28;20042;-75
2022/05/04 06:43:08;;;;;;;798.05;737.10;;;10.10;99.90;;;;;;4995445;28;20051;-75
2022/05/04 06:45:34;;;;;;;499.05;463.08;;;10.40;99.90;;;;;;4995146;28;20046;-75
2022/05/04 06:48:02;;;;;;;668.53;619.33;;;11.20;99.90;;;;;;4994921;28;20046;-75
2022/05/04 06:50:28;;;;;;;630.28;585.47;;;10.40;99.90;;;;;;4977497;28;20047;-75
2022/05/04 06:52:54;;;;;;;601.22;557.50;;;10.50;99.90;;;;;;4977346;28;20124;-76
2022/05/04 06:55:20;;;;;;;629.72;584.40;;;10.50;99.90;;;;;;4994799;28;20104;-77
2022/05/04 06:57:45;;;;;;;637.25;593.22;;;10.60;99.90;;;;;;4994872;28;20054;-76
2022/05/04 07:00:12;;;;;;;748.55;693.20;;;10.70;99.90;;;;;;4995097;28;20396;-76
2022/05/04 07:02:38;;;;;;;525.35;486.17;;;10.80;99.90;;;;;;4977714;28;20085;-77
2022/05/04 07:05:05;;;;;;;678.03;627.05;;;10.80;99.90;;;;;;4994300;28;20100;-77
2022/05/04 07:07:31;;;;;;;680.75;631.30;;;10.80;99.90;;;;;;4994987;28;20050;-76
2022/05/04 07:09:58;;;;;;;341.92;316.40;;;10.90;99.90;;;;;;4977396;28;20387;-76
2022/05/04 07:12:24;;;;;;;698.33;643.95;;;11.00;99.90;;;;;;4977692;28;20061;-76
2022/05/04 07:14:51;;;;;;;666.10;617.13;;;11.20;99.90;;;;;;4994530;28;20050;-78
2022/05/04 07:17:18;;;;;;;613.58;567.95;;;11.30;99.90;;;;;;4976454;28;20399;-77
2022/05/04 07:19:43;;;;;;;627.53;579.67;;;11.50;99.90;;;;;;4977223;28;20061;-74
2022/05/04 07:22:09;;;;;;;554.55;511.70;;;11.70;99.90;;;;;;4994149;28;20046;-74
2022/05/04 07:24:35;;;;;;;638.03;588.30;;;11.90;99.90;;;;;;4994496;28;20050;-74
2022/05/04 07:27:01;;;;;;;433.75;401.33;;;12.10;99.90;;;;;;4976497;28;20046;-74
2022/05/04 07:29:26;;;;;;;320.10;296.90;;;12.20;99.90;;;;;;4994344;28;20475;-74
2022/05/04 07:31:52;;;;;;;322.23;298.02;;;12.30;99.90;;;;;;4976719;28;20066;-74
2022/05/04 07:34:18;;;;;;;402.38;375.33;;;12.20;99.90;;;;;;4994185;28;20423;-74
2022/05/04 07:36:45;;;;;;;694.90;643.17;;;12.20;99.90;;;;;;4992708;28;20081;-78
2022/05/04 07:44:40;;;;;;;517.83;482.75;;;12.10;99.90;;;;;;4994306;28;20050;-76
2022/05/04 07:47:06;;;;;;;761.85;697.65;;;11.90;99.90;;;;;;4992628;28;20078;-75
2022/05/04 07:49:32;;;;;;;458.73;426.02;;;11.90;99.90;;;;;;4976856;28;20081;-76
2022/05/04 07:51:58;;;;;;;464.70;430.55;;;12.00;99.90;;;;;;4976074;28;20163;-75
2022/05/04 07:54:24;;;;;;;307.27;287.60;;;12.10;99.90;;;;;;4994060;28;20050;-74
2022/05/04 07:56:49;;;;;;;432.13;399.15;;;12.40;99.90;;;;;;4993940;28;20483;-76
2022/05/04 07:59:15;;;;;;;703.80;648.60;;;12.20;99.90;;;;;;4976781;28;20050;-76
2022/05/04 08:04:25;;;;;;;479.60;447.58;;;12.40;99.90;;;;;;4994151;28;20051;-75
2022/05/04 08:06:51;;;;;;;314.92;293.05;;;12.40;99.90;;;;;;4993121;28;20332;-76
2022/05/04 08:09:17;;;;;;;378.20;348.40;;;12.30;99.90;;;;;;4993868;28;20185;-75
2022/05/04 08:11:43;;;;;;;508.80;472.90;;;12.30;99.90;;;;;;4993583;28;20398;-75
2022/05/04 08:14:10;;;;;;;275.35;257.65;;;12.50;99.90;;;;;;4959743;28;20062;-76
2022/05/04 08:16:37;;;;;;;239.52;223.55;;;12.90;99.90;;;;;;4976557;28;20092;-75
2022/05/04 08:19:03;;;;;;;263.48;246.70;;;13.90;99.90;;;;;;4993293;28;20050;-75
2022/05/04 08:21:29;;;;;;;195.23;184.05;;;15.00;99.90;;;;;;4993187;28;20112;-75
2022/05/04 08:23:55;;;;;;;184.57;173.65;;;16.70;99.90;;;;;;4975677;28;20058;-76
2022/05/04 08:26:21;;;;;;;278.08;261.55;;;18.20;99.90;;;;;;4993239;28;20046;-75
2022/05/04 08:28:46;;;;;;;265.17;249.57;;;19.50;99.90;;;;;;4992770;28;20129;-75
2022/05/04 08:31:12;;;;;;;356.05;334.95;;;20.40;99.90;;;;;;4992955;28;20105;-75
2022/05/04 08:33:38;;;;;;;220.00;207.20;;;20.70;99.90;;;;;;4993412;28;20057;-74
2022/05/04 08:36:04;;;;;;;145.57;137.13;;;21.30;99.90;;;;;;4992429;28;20050;-75
2022/05/04 08:38:30;;;;;;;36.63;34.10;;;22.10;99.90;;;;;;4993231;28;20387;-76
2022/05/04 08:40:56;;;;;;;43.22;40.25;;;23.00;99.90;;;;;;4992530;28;20203;-76
2022/05/04 08:43:26;;;;;;;66.28;61.83;;;22.60;99.90;;;;;;4993159;28;20066;-75
2022/05/04 08:45:53;;;;;;;79.50;74.32;;;21.10;99.90;;;;;;4975371;28;20046;-76
2022/05/04 08:48:20;;;;;;;132.57;124.00;;;20.30;99.90;;;;;;4993126;28;20086;-76
2022/05/04 08:50:46;;;;;;;246.82;231.50;;;19.40;99.90;;;;;;4959640;28;20085;-75
2022/05/04 08:53:13;;;;;;;256.13;240.05;;;19.50;99.90;;;;;;4975207;28;20054;-76
2022/05/04 08:55:39;;;;;;;181.27;169.20;;;20.20;99.90;;;;;;4992636;28;20061;-76
2022/05/04 08:58:06;;;;;;;139.93;130.88;;;20.90;99.90;;;;;;4992660;28;20502;-75
2022/05/04 09:00:32;;;;;;;320.02;298.60;;;22.00;99.90;;;;;;4992810;28;20046;-76
2022/05/04 09:02:58;;;;;;;277.00;257.92;;;23.10;99.90;;;;;;4992420;28;20046;-76
2022/05/04 09:05:26;;;;;;;389.75;362.98;;;23.40;99.90;;;;;;4974923;28;20061;-75
2022/05/04 09:07:56;;;;;;;278.17;259.02;;;23.90;99.90;;;;;;4992477;28;20046;-76
2022/05/04 09:10:27;;;;;;;278.48;260.98;;;24.50;99.90;;;;;;4993017;28;20038;-76
2022/05/04 09:12:59;;;;;;;384.10;359.13;;;24.30;99.90;;;;;;4992585;28;20200;-76
2022/05/04 09:15:27;;;;;;;394.35;366.27;;;24.30;99.90;;;;;;4992295;28;20042;-76
2022/05/04 09:18:01;;;;;;;299.50;278.02;;;24.00;99.90;;;;;;4992285;28;20054;-77
2022/05/04 09:20:48;;;;;;;339.15;316.33;;;23.10;99.90;;;;;;4992130;28;20456;-75
2022/05/04 09:23:20;;;;;;;281.15;262.73;;;22.40;99.90;;;;;;4959018;28;20080;-75
2022/05/04 09:26:00;;;;;;;387.73;361.48;;;21.50;99.90;;;;;;4992038;28;20050;-76
2022/05/04 09:28:27;;;;;;;484.20;451.00;;;20.50;99.90;;;;;;4975065;28;20122;-75
2022/05/04 09:31:04;;;;;;;305.25;285.27;;;19.90;99.90;;;;;;4992178;28;20065;-76
2022/05/04 09:33:33;;;;;;;409.30;383.05;;;19.70;99.90;;;;;;4992659;28;20104;-75
2022/05/04 09:36:03;;;;;;;335.90;313.80;;;20.20;99.90;;;;;;4974412;28;20133;-76
2022/05/04 09:46:49;;;;;;;320.98;300.20;;;23.30;99.90;;;;;;4995023;28;20050;-75
2022/05/04 09:49:23;;;;;;;402.67;376.20;;;23.70;99.90;;;;;;4995613;28;20471;-75
2022/05/04 09:51:53;;;;;;;288.00;268.42;;;24.60;99.90;;;;;;4978651;28;20121;-75
2022/05/04 09:54:27;;;;;;;383.98;358.92;;;25.80;99.90;;;;;;4996008;28;20057;-75
2022/05/04 09:56:57;;;;;;;368.58;345.35;;;26.80;99.90;;;;;;4962178;28;20066;-77
2022/05/04 09:59:30;;;;;;;322.05;301.35;;;27.10;99.90;;;;;;4996095;28;20129;-75
2022/05/04 10:01:58;;;;;;;330.45;309.02;;;26.30;99.90;;;;;;4995604;28;20066;-75
2022/05/04 10:04:25;;;;;;;288.83;269.90;;;25.30;99.90;;;;;;4978795;28;20149;-75
2022/05/04 10:06:52;;;;;;;286.23;268.13;;;24.40;99.90;;;;;;4995429;28;20454;-75
2022/05/04 10:09:19;;;;;;;347.13;325.48;;;24.20;99.90;;;;;;4995889;28;20133;-75
2022/05/04 10:11:46;;;;;;;266.45;249.73;;;24.20;99.90;;;;;;4995652;28;20077;-75
2022/05/04 10:14:15;;;;;;;367.00;343.92;;;23.80;99.90;;;;;;4995547;28;20426;-75
2022/05/04 10:17:23;;;;;;;308.55;288.95;;;23.60;99.90;;;;;;4978109;28;20432;-75
2022/05/04 10:20:09;;;;;;;283.58;266.02;;;24.20;99.90;;;;;;4916056;29;20127;-75
2022/05/04 10:22:38;;;;;;;289.33;271.60;;;25.00;99.90;;;;;;4916428;29;20059;-75
2022/05/04 10:25:05;;;;;;;144.45;135.45;;;25.80;99.90;;;;;;4935047;28;20058;-75
2022/05/04 10:27:31;;;;;;;257.95;242.00;;;26.40;99.90;;;;;;4978437;28;20432;-75
2022/05/04 10:32:50;;;;;;;278.52;260.27;;;26.80;99.90;;;;;;4980791;28;20057;-75
2022/05/04 10:35:32;;;;;;;113.50;106.55;;;26.80;99.90;;;;;;4994773;28;20079;-76
2022/05/04 10:37:58;;;;;;;86.93;81.93;;;26.80;99.90;;;;;;4995185;28;20125;-75
2022/05/04 10:40:30;;;;;;;87.40;81.80;;;26.80;99.90;;;;;;4995662;28;20209;-75
2022/05/04 10:42:58;;;;;;;47.40;44.00;;;26.80;99.90;;;;;;4995229;28;20093;-79
2022/05/04 10:45:39;;;;;;;69.50;64.88;;;26.60;99.90;;;;;;4995110;28;20181;-75
2022/05/04 10:48:20;;;;;;;97.90;92.00;;;27.60;99.90;;;;;;4994825;28;20054;-76
2022/05/04 10:50:55;;;;;;;50.47;46.75;;;27.80;99.90;;;;;;4994594;28;20050;-75
2022/05/04 10:53:30;;;;;;;149.60;140.05;;;27.50;99.90;;;;;;4962530;28;20050;-75
2022/05/04 10:56:05;;;;;;;378.73;352.88;;;28.10;99.90;;;;;;4994847;28;20062;-75
2022/05/04 10:58:44;;;;;;;48.17;44.90;;;28.50;99.90;;;;;;4995191;28;20058;-75
2022/05/04 11:01:20;;;;;;;73.30;68.70;;;28.70;99.90;;;;;;4994829;28;20047;-75
2022/05/04 11:03:50;;;;;;;116.38;109.18;;;27.80;99.90;;;;;;4977845;28;20394;-75
2022/05/04 11:06:33;;;;;;;66.25;61.85;;;27.70;99.90;;;;;;4994022;28;20049;-75
2022/05/04 11:09:12;;;;;;;93.50;87.63;;;27.80;99.90;;;;;;4994557;28;20102;-76
2022/05/04 11:11:40;;;;;;;337.00;313.05;;;26.40;99.90;;;;;;4994951;28;20096;-75
2022/05/04 11:14:07;;;;;;;174.40;161.20;;;27.10;99.90;;;;;;4994600;28;20069;-75
2022/05/04 11:16:33;;;;;;;309.80;288.35;;;27.70;99.90;;;;;;4995013;28;20042;-75
2022/05/04 11:19:01;;;;;;;45.38;42.15;;;28.10;99.90;;;;;;4994724;28;20038;-78
2022/05/04 11:21:29;;;;;;;200.20;186.05;;;27.80;99.90;;;;;;4994543;28;20043;-75
2022/05/04 11:24:02;;;;;;;218.00;201.93;;;27.80;99.90;;;;;;4977474;28;20054;-75
2022/05/04 11:26:40;;;;;;;318.00;294.90;;;28.00;99.90;;;;;;4977044;28;20043;-75
2022/05/04 11:29:28;;;;;;;36.75;34.10;;;27.60;99.90;;;;;;4994155;28;20554;-75
2022/05/04 11:31:56;;;;;;;264.80;249.85;;;27.80;99.90;;;;;;4994596;28;20054;-75
2022/05/04 11:34:23;;;;;;;54.53;50.85;;;27.80;99.90;;;;;;4994267;28;20054;-74
2022/05/04 11:36:51;;;;;;;117.13;108.45;;;28.00;99.90;;;;;;4976580;28;20149;-75
2022/05/04 11:39:18;;;;;;;97.57;89.78;;;28.60;99.90;;;;;;4960997;28;20051;-76
2022/05/04 11:41:45;;;;;;;340.13;320.17;;;28.00;99.90;;;;;;4994134;28;20469;-76
2022/05/04 11:44:15;;;;;;;127.80;120.10;;;27.30;99.90;;;;;;4976632;28;20042;-75
2022/05/04 11:46:47;;;;;;;245.32;230.00;;;28.40;99.90;;;;;;4994309;28;20043;-76
2022/05/04 11:49:14;;;;;;;139.70;131.18;;;28.70;99.90;;;;;;4976241;28;20054;-75
2022/05/04 11:51:41;;;;;;;172.48;162.10;;;28.50;99.90;;;;;;4976632;28;20113;-75
2022/05/04 11:54:07;;;;;;;;;;;28.50;99.90;;;;;;4977066;28;20133;-75
2022/05/04 11:56:34;;;;;;;68.03;63.70;;;28.50;99.90;;;;;;4993942;28;20328;-75
2022/05/04 11:59:01;;;;;;;88.95;83.28;;;28.70;99.90;;;;;;4993997;28;20044;-75
2022/05/04 12:01:27;;;;;;;215.63;201.30;;;29.00;99.90;;;;;;4993381;28;20509;-75
2022/05/04 12:03:53;;;;;;;161.80;151.10;;;29.30;99.90;;;;;;4993360;28;20046;-74
2022/05/04 12:06:20;;;;;;;82.88;77.65;;;29.50;99.90;;;;;;4993168;28;20051;-75
2022/05/04 12:08:46;;;;;;;329.40;308.43;;;29.30;99.90;;;;;;4976586;28;20046;-76
2022/05/04 12:11:12;;;;;;;113.23;106.53;;;28.50;99.90;;;;;;4993623;28;20042;-76
2022/05/04 12:13:40;;;;;;;192.63;179.73;;;28.20;99.90;;;;;;4976714;28;20046;-76
2022/05/04 12:16:07;;;;;;;172.13;161.05;;;27.10;99.90;;;;;;4976150;28;20214;-77
2022/05/04 12:18:36;;;;;;;276.77;258.13;;;25.20;99.90;;;;;;4993604;28;20054;-74
2022/05/04 12:21:14;;;;;;;380.83;355.45;;;25.20;99.90;;;;;;4993125;28;20133;-76
2022/05/04 12:23:42;;;;;;;199.20;186.30;;;25.00;99.90;;;;;;4993721;28;20047;-77
2022/05/04 12:26:10;;;;;;;356.13;332.70;;;24.10;99.90;;;;;;4993161;28;20402;-77
2022/05/04 12:28:38;;;;;;;299.40;280.23;;;23.30;99.90;;;;;;4993483;28;20183;-75
2022/05/04 12:33:49;;;;;;;310.33;291.38;;;22.10;99.90;;;;;;4993425;28;20053;-75
2022/05/04 12:36:17;;;;;;;261.92;244.68;;;21.30;99.90;;;;;;4992475;28;20038;-75
2022/05/04 12:38:46;;;;;;;199.18;186.93;;;20.80;99.90;;;;;;4993294;28;20394;-75
2022/05/04 12:41:14;;;;;;;181.20;170.27;;;20.30;99.90;;;;;;4959579;28;20122;-76
2022/05/04 12:43:40;;;;;;;573.03;530.22;;;19.80;99.90;;;;;;4975935;28;20141;-75
2022/05/04 12:46:11;;;;;;;193.43;180.13;;;19.40;99.90;;;;;;4992947;28;20184;-75
2022/05/04 12:48:39;;;;;;;571.45;529.45;;;19.20;99.90;;;;;;4975884;28;20058;-74